L.F. Wade International International Airport
TXKF : rendu visible

Aérodrome :











RETROUVEZ-NOUS SUR...

 
LOGIN :

S'inscrire | Disclaimer

   EN    FR    IT 

 









Légende :    VFR   VFR Marginal   IFR   IFR Intensif   IFR Très Intensif
Visi : 
Plafond : 
>= 8 km
>= 3000ft
5 à 8 km
1000 à 3000 ft
1500m à 5 km
500 à 1000 ft
800 à 1500m
200 à 500 ft
< 800m
< 200 ft
Symboles :   Orages  Brouillard  Fortes neiges  Fortes précipitations  Vent > 20 kt






- Altitude de l'aérodrome : 12 ft
- Code IATA : BDA


TXKF - L.F. Wade International International

DERNIER METAR :
  • 111755Z VRB01KT 9999 VCSH SCT021 SCT065 SCT300 30/24 Q1019

METARs EXPIRÉS :
  • 111655Z 16003KT 9999 VCSH SCT026 SCT068 SCT300 28/24 Q1020

TAF TAF TXKF
Valide du 11 à 18h jusqu'au 12 à 18h UTC


111732Z 1118/1218 VRB03KT 9999 SCT025
FIR TXKF / Amérique du Nord



MET'MAP, la Météo Aéronautique d'un coup d'oeil ! - Copyright ORBIFLY Décembre 2007 - Disclaimer

ORBIFLY MET'MAP TEAM :

Programmation & Développement : Alexandra Zaïnal
Sur une idée originale de : Baudouin d'Aumeries
Assistance à la programmation : Marc-Olivier Méhu
Soutien technique & logistique : Manuel Goepfert

Contact : metmap@orbifly.com




SOURCES & CREDITS :

   NOAA       Earth
Advisory